Milan, Ohio
Current Conditions -  °F | °C
As of 6:33 AM on Saturday 22 Nov 2014 (Local Time) from KPCW Reporting Station
Overcast Overcast  
Wind Chill: 24°   Ceiling: 2500
Heat Index: 34°   Visibility: 10mi
Dew Point: 21°   Wind: 14mph
Humidity: 60%   Direction: 190°S
Pressure: 30.18"   Gusts: NA
Location:  41.3°N, 82.61°W
Report Text: KPCW 221133Z AUTO 19012KT 10SM OVC025 01/M06 A3018 RMK AO2 RAE30 $
Loading
Personal Weather Stations






























Interactive Weather Map New forecast layout! Learn more

10-Day Weather Forecast

Advertisements
Track Severe Weather on mobile